Flight Track Log - Related Links

Times and Time Zones

All times are in EDT time to prevent confusion due to time zone crossing. See the EJA396 flight status page for this flight to view local times or setup timezone preferences in your user account.

Time Position Orientation Groundspeed Altitude Reporting Facility
EDT Latitude Longitude Course Direction KTS MPH feet Rate Location/Type
Mon 07:04:00 PM 48.1982 -114.7863 252° West  Level FlightAware Approximate
Mon 07:05:00 PM 48.1696 -114.9195 252° West  Level FlightAware Approximate
Mon 07:05:35 PM 48.3211 -114.2550 253° West 189 217 4,200  Level Salt Lake Center
Mon 07:06:00 PM 48.1411 -115.0528 252° West  Level FlightAware Approximate
Mon 07:06:37 PM 48.3181 -114.3222 266° West 231 266 8,700  Level Salt Lake Center
Mon 07:07:00 PM 48.1119 -115.1856 250° West  Level FlightAware Approximate
Mon 07:08:00 PM 48.0792 -115.3165 250° West  Level FlightAware Approximate
Mon 07:08:39 PM 48.1911 -114.2261 153° Southeast 284 327 19,600  Level Salt Lake Center
Mon 07:09:00 PM 48.0466 -115.4473 250° West  Level FlightAware Approximate
Mon 07:09:41 PM 48.1525 -114.3314 241° Southwest 301 346 22,700  Level Salt Lake Center
Mon 07:10:00 PM 48.0174 -115.5798 253° West  Level FlightAware Approximate
Mon 07:10:42 PM 48.1144 -114.4492 244° Southwest 318 366 26,000  Level Salt Lake Center
Mon 07:11:44 PM 48.0697 -114.5969 246° West 330 380 29,600 3,122 Climbing Salt Lake Center
Mon 07:12:45 PM 48.0314 -114.7197 245° Southwest 331 381 32,400 1,742 Climbing Salt Lake Center
Mon 07:14:50 PM 47.9511 -114.9761 245° Southwest 347 399 35,000 839 Climbing Seattle Center
Mon 07:15:51 PM 47.9039 -115.1250 245° Southwest 391 450 35,000  Level Seattle Center
Mon 07:16:51 PM 47.8569 -115.2742 245° Southwest 399 459 35,000  Level Salt Lake Center
Mon 07:17:53 PM 47.8017 -115.4453 244° Southwest 390 449 35,000  Level Salt Lake Center
Mon 07:18:54 PM 47.7567 -115.5864 245° Southwest 384 442 35,000  Level Salt Lake Center
Mon 07:19:54 PM 47.7119 -115.7203 244° Southwest 380 437 35,000  Level Seattle Center
Mon 07:20:55 PM 47.6664 -115.8586 244° Southwest 376 433 35,000  Level Seattle Center
Mon 07:21:56 PM 47.6214 -115.9958 244° Southwest 374 430 35,000 148 Level Seattle Center
Mon 07:22:57 PM 47.5758 -116.1350 244° Southwest 374 430 35,300 443 Climbing Seattle Center
Mon 07:23:58 PM 47.5272 -116.2806 244° Southwest 387 445 35,900 344 Climbing Seattle Center
Mon 07:24:59 PM 47.4778 -116.4306 244° Southwest 405 466 36,000 50 Climbing Seattle Center
Mon 07:25:59 PM 47.4283 -116.5775 244° Southwest 401 461 36,000  Level Seattle Center
Mon 07:27:00 PM 47.3806 -116.7192 244° Southwest 391 450 36,000  Level Seattle Center
Mon 07:28:01 PM 47.3333 -116.8581 243° Southwest 381 438 36,000  Level Seattle Center
Mon 07:29:02 PM 47.2858 -116.9969 243° Southwest 379 436 36,000  Level Seattle Center
Mon 07:30:03 PM 47.2389 -117.1331 243° Southwest 373 429 36,000  Level Seattle Center
Mon 07:31:04 PM 47.1917 -117.2697 243° Southwest 373 429 36,000  Level Seattle Center
Mon 07:32:04 PM 47.1442 -117.4069 243° Southwest 373 429 36,000  Level Seattle Center
Mon 07:33:05 PM 47.0986 -117.5417 244° Southwest 371 427 36,000  Level Seattle Center
Mon 07:34:06 PM 47.0503 -117.6778 243° Southwest 372 428 36,000  Level Seattle Center
Mon 07:35:07 PM 47.0031 -117.8167 244° Southwest 380 437 36,000  Level Seattle Center
Mon 07:36:08 PM 46.9433 -117.9814 242° Southwest 383 441 36,000  Level Seattle Center
Mon 07:37:09 PM 46.8933 -118.1192 242° Southwest 383 441 36,000  Level Seattle Center
Mon 07:38:10 PM 46.8439 -118.2581 243° Southwest 383 441 36,000  Level Seattle Center
Mon 07:39:11 PM 46.7931 -118.3967 242° Southwest 384 442 36,000  Level Seattle Center
Mon 07:40:11 PM 46.7431 -118.5361 242° Southwest 385 443 36,000  Level Seattle Center
Mon 07:41:12 PM 46.6917 -118.6772 242° Southwest 390 449 36,000  Level Seattle Center
Mon 07:42:13 PM 46.6394 -118.8178 242° Southwest 392 451 36,000  Level Seattle Center
Mon 07:43:14 PM 46.5861 -118.9636 242° Southwest 394 453 36,000  Level Seattle Center
Mon 07:44:15 PM 46.5336 -119.1053 242° Southwest 399 459 36,000  Level Seattle Center
Mon 07:45:16 PM 46.4814 -119.2469 242° Southwest 399 459 36,000  Level Seattle Center
Mon 07:46:17 PM 46.4289 -119.3886 242° Southwest 400 460 36,000  Level Seattle Center
Mon 07:47:18 PM 46.3756 -119.5308 242° Southwest 401 461 36,000  Level Seattle Center
Mon 07:48:19 PM 46.3214 -119.6708 241° Southwest 401 461 36,000  Level Seattle Center
Mon 07:49:19 PM 46.2672 -119.8125 241° Southwest 401 461 36,000  Level Seattle Center
Mon 07:50:20 PM 46.2039 -119.9839 242° Southwest 404 465 36,000  Level Seattle Center
Mon 07:51:21 PM 46.1481 -120.1250 240° Southwest 405 466 36,000  Level Seattle Center
Mon 07:52:22 PM 46.0933 -120.2672 241° Southwest 405 466 36,000 -148 Level Seattle Center
Mon 07:53:23 PM 46.0383 -120.4094 241° Southwest 405 466 35,700 -2,508 Descending Seattle Center
Mon 07:54:24 PM 45.9803 -120.5569 241° Southwest 422 486 30,900 -4,574 Descending Seattle Center
Mon 07:55:25 PM 45.9219 -120.7086 241° Southwest 433 498 26,400 -3,421 Descending Seattle Center
Mon 07:56:25 PM 45.8619 -120.8367 236° Southwest 396 456 24,000 -1,339 Descending Seattle Center
Mon 07:57:26 PM 45.7892 -120.9650 231° Southwest 413 475 23,700 -1,475 Descending Seattle Center
Mon 07:58:27 PM 45.7231 -121.0808 231° Southwest 371 427 21,000 -2,410 Descending Seattle Center
Mon 07:59:28 PM 45.6778 -121.2136 244° Southwest 377 434 18,800 -1,714 Descending Seattle Center
Mon 08:00:05 PM 45.6506 -121.3111 248° West 362 417 18,200 -295 Descending Seattle Center
Mon 08:00:29 PM 45.6383 -121.3467 244° Southwest 370 426 18,500 889 Climbing Seattle Center
Mon 08:00:59 PM 45.6119 -121.4364 247° West 375 432 19,000 -295 Climbing Seattle Center
Mon 08:01:30 PM 45.5956 -121.4789 241° Southwest 370 426 18,200 -2,233 Descending Seattle Center
Mon 08:01:42 PM 45.5867 -121.5217 253° West 345 397 17,400 -3,148 Descending Seattle Center
Mon 08:02:31 PM 45.5561 -121.6281 248° West 346 398 15,000 -2,836 Descending Seattle Center
Mon 08:03:32 PM 45.5383 -121.7506 258° West 318 366 12,200 -2,132 Descending Seattle Center
Mon 08:04:32 PM 45.5336 -121.8728 267° West 310 357 10,700 -1,537 Descending Seattle Center
Mon 08:05:33 PM 45.5303 -121.9789 267° West 254 292 9,100 -1,525 Descending Seattle Center
Mon 08:06:34 PM 45.5319 -122.0753 271° West 226 260 7,600 -1,537 Descending Seattle Center
Mon 08:07:34 PM 45.5331 -122.1600 271° West 215 247 6,000 -1,525 Descending Seattle Center
Mon 08:08:36 PM 45.5339 -122.2514 271° West 230 265 4,500 -1,443 Descending Seattle Center
Mon 08:08:53 PM 45.5339 -122.2800 270° West 236 272 4,100 -590 Descending Seattle Center
Mon 08:09:37 PM 45.5322 -122.3392 268° West 217 250 3,900 -537 Descending Seattle Center
Mon 08:10:00 PM 45.5328 -122.3700 271° West 194 223 3,500 -885 Descending Seattle Center
Mon 08:10:38 PM 45.5350 -122.4233 273° West 197 227 3,000 -700 Descending Seattle Center
Mon 08:11:00 PM 45.5347 -122.4433 269° West 183 211 2,800 -984 Descending Seattle Center
Mon 08:11:39 PM 45.5489 -122.4775 301° West 145 167 2,000 -1,052 Descending Seattle Center
Mon 08:12:37 PM 45.5617 -122.5122 298° West 100 115 1,100 -857 Descending Seattle Center
Mon 08:13:38 PM 45.5764 -122.5528 297° West 103 119 300 -787 Descending Seattle Center

Login

Don't have an account? Register now (free) for customized features, flight alerts, and more!